sensor_id;sensor_type;location;lat;lon;timestamp;pressure;altitude;pressure_sealevel;temperature;humidity
34243;BME280;20504;43.214;27.920;2023-03-09T00:02:02;99285.59;;;13.93;100.00
34243;BME280;20504;43.214;27.920;2023-03-09T00:04:29;99309.25;;;13.79;100.00
34243;BME280;20504;43.214;27.920;2023-03-09T00:06:55;99299.53;;;13.87;100.00
34243;BME280;20504;43.214;27.920;2023-03-09T00:09:20;99287.72;;;13.90;100.00
34243;BME280;20504;43.214;27.920;2023-03-09T00:11:46;99306.31;;;13.82;100.00
34243;BME280;20504;43.214;27.920;2023-03-09T00:14:12;99294.66;;;13.83;100.00
34243;BME280;20504;43.214;27.920;2023-03-09T00:16:38;99267.25;;;13.90;100.00
34243;BME280;20504;43.214;27.920;2023-03-09T00:19:04;99279.50;;;13.83;100.00
34243;BME280;20504;43.214;27.920;2023-03-09T00:21:29;99260.53;;;13.86;100.00
34243;BME280;20504;43.214;27.920;2023-03-09T00:26:27;99218.06;;;13.85;100.00
34243;BME280;20504;43.214;27.920;2023-03-09T00:28:52;99232.03;;;13.69;100.00
34243;BME280;20504;43.214;27.920;2023-03-09T00:31:17;99222.16;;;13.61;100.00
34243;BME280;20504;43.214;27.920;2023-03-09T00:33:43;99206.16;;;13.61;100.00
34243;BME280;20504;43.214;27.920;2023-03-09T00:36:12;99229.00;;;13.37;100.00
34243;BME280;20504;43.214;27.920;2023-03-09T00:38:37;99235.25;;;13.18;100.00
34243;BME280;20504;43.214;27.920;2023-03-09T00:41:03;99229.94;;;13.08;100.00
34243;BME280;20504;43.214;27.920;2023-03-09T00:43:28;99213.84;;;13.00;100.00
34243;BME280;20504;43.214;27.920;2023-03-09T00:45:54;99204.47;;;12.96;100.00
34243;BME280;20504;43.214;27.920;2023-03-09T00:48:19;99173.38;;;13.06;100.00
34243;BME280;20504;43.214;27.920;2023-03-09T00:50:44;99169.75;;;12.97;100.00
34243;BME280;20504;43.214;27.920;2023-03-09T00:53:10;99165.84;;;12.92;100.00
34243;BME280;20504;43.214;27.920;2023-03-09T00:55:35;99182.41;;;12.86;100.00
34243;BME280;20504;43.214;27.920;2023-03-09T00:58:00;99179.59;;;12.87;100.00
34243;BME280;20504;43.214;27.920;2023-03-09T01:00:26;99201.88;;;12.77;100.00
34243;BME280;20504;43.214;27.920;2023-03-09T01:02:51;99213.94;;;12.71;100.00
34243;BME280;20504;43.214;27.920;2023-03-09T01:05:17;99220.56;;;12.67;100.00
34243;BME280;20504;43.214;27.920;2023-03-09T01:07:43;99205.81;;;12.72;100.00
34243;BME280;20504;43.214;27.920;2023-03-09T01:10:10;99207.09;;;12.68;100.00
34243;BME280;20504;43.214;27.920;2023-03-09T01:12:36;99215.09;;;12.59;100.00
34243;BME280;20504;43.214;27.920;2023-03-09T01:15:02;99240.59;;;12.52;100.00
34243;BME280;20504;43.214;27.920;2023-03-09T01:17:27;99254.72;;;12.42;100.00
34243;BME280;20504;43.214;27.920;2023-03-09T01:19:52;99264.53;;;12.32;100.00
34243;BME280;20504;43.214;27.920;2023-03-09T01:22:18;99241.41;;;12.42;100.00
34243;BME280;20504;43.214;27.920;2023-03-09T01:24:43;99245.75;;;12.43;100.00
34243;BME280;20504;43.214;27.920;2023-03-09T01:27:08;99279.94;;;12.29;100.00
34243;BME280;20504;43.214;27.920;2023-03-09T01:29:35;99280.78;;;12.29;100.00
34243;BME280;20504;43.214;27.920;2023-03-09T01:32:00;99281.19;;;12.34;100.00
34243;BME280;20504;43.214;27.920;2023-03-09T01:34:26;99276.41;;;12.38;100.00
34243;BME280;20504;43.214;27.920;2023-03-09T01:36:52;99282.44;;;12.40;100.00
34243;BME280;20504;43.214;27.920;2023-03-09T01:39:17;99277.41;;;12.47;100.00
34243;BME280;20504;43.214;27.920;2023-03-09T01:41:42;99298.66;;;12.37;100.00
34243;BME280;20504;43.214;27.920;2023-03-09T01:44:09;99300.47;;;12.36;100.00
34243;BME280;20504;43.214;27.920;2023-03-09T01:54:07;99314.19;;;12.41;100.00
34243;BME280;20504;43.214;27.920;2023-03-09T01:56:34;99318.81;;;12.39;100.00
34243;BME280;20504;43.214;27.920;2023-03-09T01:59:00;99318.38;;;12.44;100.00
34243;BME280;20504;43.214;27.920;2023-03-09T02:01:27;99305.25;;;12.52;100.00
34243;BME280;20504;43.214;27.920;2023-03-09T02:03:54;99329.59;;;12.48;100.00
34243;BME280;20504;43.214;27.920;2023-03-09T02:06:21;99337.97;;;12.43;100.00
34243;BME280;20504;43.214;27.920;2023-03-09T02:11:35;99330.03;;;12.53;100.00
34243;BME280;20504;43.214;27.920;2023-03-09T02:14:00;99340.22;;;12.57;100.00
34243;BME280;20504;43.214;27.920;2023-03-09T02:16:26;99373.56;;;12.52;100.00
34243;BME280;20504;43.214;27.920;2023-03-09T02:18:53;99372.28;;;12.56;100.00
34243;BME280;20504;43.214;27.920;2023-03-09T02:24:05;99432.72;;;12.34;100.00
34243;BME280;20504;43.214;27.920;2023-03-09T02:29:00;99419.44;;;12.34;100.00
34243;BME280;20504;43.214;27.920;2023-03-09T02:31:26;99422.09;;;12.34;100.00
34243;BME280;20504;43.214;27.920;2023-03-09T02:33:51;99440.50;;;12.26;100.00
34243;BME280;20504;43.214;27.920;2023-03-09T02:36:16;99426.84;;;12.31;100.00
34243;BME280;20504;43.214;27.920;2023-03-09T02:38:42;99428.81;;;12.29;100.00
34243;BME280;20504;43.214;27.920;2023-03-09T02:41:08;99427.69;;;12.31;100.00
34243;BME280;20504;43.214;27.920;2023-03-09T02:43:43;99428.53;;;12.32;100.00
34243;BME280;20504;43.214;27.920;2023-03-09T02:46:09;99424.47;;;12.37;100.00
34243;BME280;20504;43.214;27.920;2023-03-09T02:48:34;99444.59;;;12.30;100.00
34243;BME280;20504;43.214;27.920;2023-03-09T02:51:00;99441.13;;;12.30;100.00
34243;BME280;20504;43.214;27.920;2023-03-09T02:53:25;99453.25;;;12.23;100.00
34243;BME280;20504;43.214;27.920;2023-03-09T02:55:51;99447.78;;;12.24;100.00
34243;BME280;20504;43.214;27.920;2023-03-09T02:58:16;99429.50;;;12.31;100.00
34243;BME280;20504;43.214;27.920;2023-03-09T03:00:41;99416.91;;;12.33;100.00
34243;BME280;20504;43.214;27.920;2023-03-09T03:03:07;99408.38;;;12.39;100.00
34243;BME280;20504;43.214;27.920;2023-03-09T03:05:33;99419.00;;;12.29;100.00
34243;BME280;20504;43.214;27.920;2023-03-09T03:07:58;99402.22;;;12.38;100.00
34243;BME280;20504;43.214;27.920;2023-03-09T03:10:23;99405.28;;;12.34;100.00
34243;BME280;20504;43.214;27.920;2023-03-09T03:12:49;99417.56;;;12.25;100.00
34243;BME280;20504;43.214;27.920;2023-03-09T03:15:14;99420.06;;;12.17;100.00
34243;BME280;20504;43.214;27.920;2023-03-09T03:17:39;99407.63;;;12.18;100.00
34243;BME280;20504;43.214;27.920;2023-03-09T03:20:05;99402.59;;;12.15;100.00
34243;BME280;20504;43.214;27.920;2023-03-09T03:22:36;99419.88;;;11.99;100.00
34243;BME280;20504;43.214;27.920;2023-03-09T03:25:02;99397.09;;;11.97;100.00
34243;BME280;20504;43.214;27.920;2023-03-09T03:27:27;99366.31;;;12.04;100.00
34243;BME280;20504;43.214;27.920;2023-03-09T03:29:52;99361.56;;;11.98;100.00
34243;BME280;20504;43.214;27.920;2023-03-09T03:32:18;99350.94;;;11.98;100.00
34243;BME280;20504;43.214;27.920;2023-03-09T03:34:43;99348.69;;;11.93;100.00
34243;BME280;20504;43.214;27.920;2023-03-09T03:37:08;99320.72;;;11.99;100.00
34243;BME280;20504;43.214;27.920;2023-03-09T03:39:34;99318.50;;;11.94;100.00
34243;BME280;20504;43.214;27.920;2023-03-09T03:41:59;99322.50;;;11.89;100.00
34243;BME280;20504;43.214;27.920;2023-03-09T03:44:24;99316.34;;;11.78;100.00
34243;BME280;20504;43.214;27.920;2023-03-09T03:46:50;99304.19;;;11.86;100.00
34243;BME280;20504;43.214;27.920;2023-03-09T03:49:15;99288.81;;;11.79;100.00
34243;BME280;20504;43.214;27.920;2023-03-09T03:51:40;99308.59;;;11.66;100.00
34243;BME280;20504;43.214;27.920;2023-03-09T03:54:05;99271.25;;;11.67;100.00
34243;BME280;20504;43.214;27.920;2023-03-09T03:56:31;99238.44;;;11.78;100.00
34243;BME280;20504;43.214;27.920;2023-03-09T03:58:57;99230.91;;;11.73;100.00
34243;BME280;20504;43.214;27.920;2023-03-09T04:01:22;99207.97;;;11.72;100.00
34243;BME280;20504;43.214;27.920;2023-03-09T04:03:48;99183.66;;;11.77;100.00
34243;BME280;20504;43.214;27.920;2023-03-09T04:06:13;99140.19;;;11.88;100.00
34243;BME280;20504;43.214;27.920;2023-03-09T04:08:38;99107.47;;;11.97;100.00
34243;BME280;20504;43.214;27.920;2023-03-09T04:11:05;99051.94;;;12.13;100.00
34243;BME280;20504;43.214;27.920;2023-03-09T04:13:30;98987.78;;;12.35;100.00
34243;BME280;20504;43.214;27.920;2023-03-09T04:15:55;98982.16;;;12.38;100.00
34243;BME280;20504;43.214;27.920;2023-03-09T04:18:21;98949.75;;;12.53;100.00
34243;BME280;20504;43.214;27.920;2023-03-09T04:20:46;98948.47;;;12.57;100.00
34243;BME280;20504;43.214;27.920;2023-03-09T04:23:11;98940.88;;;12.62;100.00
34243;BME280;20504;43.214;27.920;2023-03-09T04:25:37;98935.34;;;12.73;100.00
34243;BME280;20504;43.214;27.920;2023-03-09T04:28:02;98932.00;;;12.71;100.00
34243;BME280;20504;43.214;27.920;2023-03-09T04:30:27;98919.44;;;12.81;100.00
34243;BME280;20504;43.214;27.920;2023-03-09T04:32:53;98918.47;;;12.82;100.00
34243;BME280;20504;43.214;27.920;2023-03-09T04:35:18;98918.34;;;12.84;100.00
34243;BME280;20504;43.214;27.920;2023-03-09T04:37:44;98838.72;;;13.08;100.00
34243;BME280;20504;43.214;27.920;2023-03-09T04:40:09;98776.28;;;13.20;100.00
34243;BME280;20504;43.214;27.920;2023-03-09T04:42:35;98765.66;;;13.28;100.00
34243;BME280;20504;43.214;27.920;2023-03-09T04:45:00;98790.47;;;13.29;100.00
34243;BME280;20504;43.214;27.920;2023-03-09T04:47:26;98805.59;;;13.28;100.00
34243;BME280;20504;43.214;27.920;2023-03-09T04:49:51;98819.09;;;13.35;100.00
34243;BME280;20504;43.214;27.920;2023-03-09T04:52:16;98813.53;;;13.46;100.00
34243;BME280;20504;43.214;27.920;2023-03-09T04:54:41;98853.13;;;13.41;100.00
34243;BME280;20504;43.214;27.920;2023-03-09T04:57:07;98844.16;;;13.50;100.00
34243;BME280;20504;43.214;27.920;2023-03-09T04:59:32;98825.28;;;13.70;100.00
34243;BME280;20504;43.214;27.920;2023-03-09T05:01:58;98837.00;;;13.77;100.00
34243;BME280;20504;43.214;27.920;2023-03-09T05:04:23;98838.00;;;13.84;100.00
34243;BME280;20504;43.214;27.920;2023-03-09T05:06:49;98868.00;;;13.86;100.00
34243;BME280;20504;43.214;27.920;2023-03-09T05:09:14;98899.78;;;13.79;100.00
34243;BME280;20504;43.214;27.920;2023-03-09T05:11:40;98924.19;;;13.75;100.00
34243;BME280;20504;43.214;27.920;2023-03-09T05:14:06;98948.66;;;13.70;100.00
34243;BME280;20504;43.214;27.920;2023-03-09T05:16:31;98955.13;;;13.68;100.00
34243;BME280;20504;43.214;27.920;2023-03-09T05:18:57;98957.84;;;13.76;100.00
34243;BME280;20504;43.214;27.920;2023-03-09T05:21:22;98954.25;;;13.85;100.00
34243;BME280;20504;43.214;27.920;2023-03-09T05:23:47;98959.25;;;13.88;100.00
34243;BME280;20504;43.214;27.920;2023-03-09T05:26:13;98976.56;;;13.84;100.00
34243;BME280;20504;43.214;27.920;2023-03-09T05:28:38;98956.34;;;13.99;100.00
34243;BME280;20504;43.214;27.920;2023-03-09T05:31:09;98947.06;;;14.11;100.00
34243;BME280;20504;43.214;27.920;2023-03-09T05:33:35;98972.59;;;14.14;100.00
34243;BME280;20504;43.214;27.920;2023-03-09T05:36:01;98993.44;;;14.18;100.00
34243;BME280;20504;43.214;27.920;2023-03-09T05:38:26;99036.84;;;14.11;100.00
34243;BME280;20504;43.214;27.920;2023-03-09T05:40:51;99081.84;;;13.88;100.00
34243;BME280;20504;43.214;27.920;2023-03-09T05:43:17;99103.25;;;13.78;100.00
34243;BME280;20504;43.214;27.920;2023-03-09T05:45:42;99129.13;;;13.68;100.00
34243;BME280;20504;43.214;27.920;2023-03-09T05:48:08;99109.69;;;13.76;100.00
34243;BME280;20504;43.214;27.920;2023-03-09T05:50:34;99105.94;;;13.78;100.00
34243;BME280;20504;43.214;27.920;2023-03-09T05:52:59;99108.03;;;13.75;100.00
34243;BME280;20504;43.214;27.920;2023-03-09T05:55:25;99077.28;;;13.80;100.00
34243;BME280;20504;43.214;27.920;2023-03-09T05:57:52;99100.13;;;13.65;100.00
34243;BME280;20504;43.214;27.920;2023-03-09T06:00:17;99116.19;;;13.55;100.00
34243;BME280;20504;43.214;27.920;2023-03-09T06:02:43;99089.63;;;13.63;100.00
34243;BME280;20504;43.214;27.920;2023-03-09T06:05:08;99066.13;;;13.77;100.00
34243;BME280;20504;43.214;27.920;2023-03-09T06:07:34;99027.63;;;13.97;100.00
34243;BME280;20504;43.214;27.920;2023-03-09T06:09:59;98990.44;;;14.21;100.00
34243;BME280;20504;43.214;27.920;2023-03-09T06:12:25;99016.44;;;14.28;100.00
34243;BME280;20504;43.214;27.920;2023-03-09T06:14:51;98990.25;;;14.49;100.00
34243;BME280;20504;43.214;27.920;2023-03-09T06:17:18;98993.63;;;14.59;100.00
34243;BME280;20504;43.214;27.920;2023-03-09T06:19:43;98981.34;;;14.82;100.00
34243;BME280;20504;43.214;27.920;2023-03-09T06:22:09;99006.88;;;14.85;100.00
34243;BME280;20504;43.214;27.920;2023-03-09T06:24:34;98990.75;;;15.11;100.00
34243;BME280;20504;43.214;27.920;2023-03-09T06:27:00;98985.44;;;15.27;100.00
34243;BME280;20504;43.214;27.920;2023-03-09T06:29:26;99006.47;;;15.38;100.00
34243;BME280;20504;43.214;27.920;2023-03-09T06:31:51;99006.47;;;15.55;100.00
34243;BME280;20504;43.214;27.920;2023-03-09T06:34:17;99037.88;;;15.53;100.00
34243;BME280;20504;43.214;27.920;2023-03-09T06:36:42;99056.91;;;15.58;100.00
34243;BME280;20504;43.214;27.920;2023-03-09T06:39:08;99104.31;;;15.39;100.00
34243;BME280;20504;43.214;27.920;2023-03-09T06:41:35;99100.00;;;15.47;100.00
34243;BME280;20504;43.214;27.920;2023-03-09T06:44:03;99117.03;;;15.45;100.00
34243;BME280;20504;43.214;27.920;2023-03-09T06:46:29;99092.19;;;15.61;100.00
34243;BME280;20504;43.214;27.920;2023-03-09T06:48:55;99082.03;;;15.81;100.00
34243;BME280;20504;43.214;27.920;2023-03-09T06:51:20;99125.78;;;15.64;100.00
34243;BME280;20504;43.214;27.920;2023-03-09T06:53:45;99107.59;;;15.84;100.00
34243;BME280;20504;43.214;27.920;2023-03-09T06:56:11;99088.34;;;16.04;100.00
34243;BME280;20504;43.214;27.920;2023-03-09T06:58:36;99116.44;;;16.09;100.00
34243;BME280;20504;43.214;27.920;2023-03-09T07:01:05;99154.19;;;15.97;100.00
34243;BME280;20504;43.214;27.920;2023-03-09T07:03:31;99098.34;;;16.27;100.00
34243;BME280;20504;43.214;27.920;2023-03-09T07:05:57;99085.25;;;16.56;100.00
34243;BME280;20504;43.214;27.920;2023-03-09T07:08:22;99081.03;;;16.78;100.00
34243;BME280;20504;43.214;27.920;2023-03-09T07:10:47;99103.59;;;16.84;100.00
34243;BME280;20504;43.214;27.920;2023-03-09T07:13:14;99128.88;;;16.81;100.00
34243;BME280;20504;43.214;27.920;2023-03-09T07:15:39;99141.91;;;16.84;100.00
34243;BME280;20504;43.214;27.920;2023-03-09T07:18:05;99117.69;;;17.09;100.00
34243;BME280;20504;43.214;27.920;2023-03-09T07:20:30;99093.06;;;17.44;100.00
34243;BME280;20504;43.214;27.920;2023-03-09T07:22:55;99117.50;;;17.49;100.00
34243;BME280;20504;43.214;27.920;2023-03-09T07:25:21;99140.13;;;17.47;100.00
34243;BME280;20504;43.214;27.920;2023-03-09T07:27:47;99143.41;;;17.57;100.00
34243;BME280;20504;43.214;27.920;2023-03-09T07:30:14;99146.31;;;17.47;100.00
34243;BME280;20504;43.214;27.920;2023-03-09T07:32:48;99129.19;;;17.56;100.00
34243;BME280;20504;43.214;27.920;2023-03-09T07:35:15;99162.91;;;17.43;100.00
34243;BME280;20504;43.214;27.920;2023-03-09T07:37:40;99121.25;;;17.71;100.00
34243;BME280;20504;43.214;27.920;2023-03-09T07:40:06;99115.34;;;17.76;100.00
34243;BME280;20504;43.214;27.920;2023-03-09T07:42:32;99097.28;;;17.93;100.00
34243;BME280;20504;43.214;27.920;2023-03-09T07:45:00;99082.06;;;18.08;100.00
34243;BME280;20504;43.214;27.920;2023-03-09T07:47:27;99099.56;;;18.19;100.00
34243;BME280;20504;43.214;27.920;2023-03-09T07:49:53;99107.53;;;18.27;100.00
34243;BME280;20504;43.214;27.920;2023-03-09T07:52:19;99068.50;;;18.54;100.00
34243;BME280;20504;43.214;27.920;2023-03-09T07:54:44;99055.94;;;18.69;100.00
34243;BME280;20504;43.214;27.920;2023-03-09T07:57:10;99090.22;;;18.67;100.00
34243;BME280;20504;43.214;27.920;2023-03-09T07:59:35;99136.34;;;18.48;100.00
34243;BME280;20504;43.214;27.920;2023-03-09T08:02:00;99135.16;;;18.50;100.00
34243;BME280;20504;43.214;27.920;2023-03-09T08:04:26;99164.19;;;18.32;100.00
34243;BME280;20504;43.214;27.920;2023-03-09T08:06:51;99112.16;;;18.70;100.00
34243;BME280;20504;43.214;27.920;2023-03-09T08:09:16;99133.91;;;18.75;100.00
34243;BME280;20504;43.214;27.920;2023-03-09T08:11:42;99120.66;;;18.89;100.00
34243;BME280;20504;43.214;27.920;2023-03-09T08:14:10;99127.78;;;18.96;100.00
34243;BME280;20504;43.214;27.920;2023-03-09T08:16:36;99108.88;;;19.19;100.00
34243;BME280;20504;43.214;27.920;2023-03-09T08:19:02;99143.81;;;19.19;100.00
34243;BME280;20504;43.214;27.920;2023-03-09T08:21:27;99121.91;;;19.37;100.00
34243;BME280;20504;43.214;27.920;2023-03-09T08:23:52;99195.06;;;19.03;100.00
34243;BME280;20504;43.214;27.920;2023-03-09T08:26:18;99155.53;;;19.33;100.00
34243;BME280;20504;43.214;27.920;2023-03-09T08:28:43;99122.13;;;19.72;100.00
34243;BME280;20504;43.214;27.920;2023-03-09T08:31:09;99110.06;;;19.89;100.00
34243;BME280;20504;43.214;27.920;2023-03-09T08:33:35;99107.75;;;20.07;100.00
34243;BME280;20504;43.214;27.920;2023-03-09T08:36:09;99154.50;;;19.85;100.00
34243;BME280;20504;43.214;27.920;2023-03-09T08:38:34;99122.28;;;20.13;100.00
34243;BME280;20504;43.214;27.920;2023-03-09T08:40:59;99129.81;;;20.24;100.00
34243;BME280;20504;43.214;27.920;2023-03-09T08:43:25;99122.69;;;20.38;100.00
34243;BME280;20504;43.214;27.920;2023-03-09T08:45:51;99102.78;;;20.60;100.00
34243;BME280;20504;43.214;27.920;2023-03-09T08:48:16;99092.72;;;20.75;100.00
34243;BME280;20504;43.214;27.920;2023-03-09T08:50:41;99080.78;;;20.84;100.00
34243;BME280;20504;43.214;27.920;2023-03-09T08:53:07;99099.56;;;20.71;100.00
34243;BME280;20504;43.214;27.920;2023-03-09T08:55:33;99029.47;;;21.19;100.00
34243;BME280;20504;43.214;27.920;2023-03-09T08:57:58;99024.16;;;21.32;100.00
34243;BME280;20504;43.214;27.920;2023-03-09T09:00:23;99034.97;;;21.39;100.00
34243;BME280;20504;43.214;27.920;2023-03-09T09:02:48;99052.56;;;21.28;100.00
34243;BME280;20504;43.214;27.920;2023-03-09T09:05:14;99027.50;;;21.41;100.00
34243;BME280;20504;43.214;27.920;2023-03-09T09:07:39;98967.97;;;21.82;100.00
34243;BME280;20504;43.214;27.920;2023-03-09T09:10:06;98931.63;;;22.04;100.00
34243;BME280;20504;43.214;27.920;2023-03-09T09:12:31;98908.72;;;22.27;100.00
34243;BME280;20504;43.214;27.920;2023-03-09T09:15:01;98895.34;;;22.45;100.00
34243;BME280;20504;43.214;27.920;2023-03-09T09:17:26;98875.78;;;22.56;100.00
34243;BME280;20504;43.214;27.920;2023-03-09T09:19:51;98919.31;;;22.35;100.00
34243;BME280;20504;43.214;27.920;2023-03-09T09:22:17;98885.53;;;22.57;100.00
34243;BME280;20504;43.214;27.920;2023-03-09T09:24:43;98827.41;;;22.80;100.00
34243;BME280;20504;43.214;27.920;2023-03-09T09:27:08;98803.97;;;23.05;100.00
34243;BME280;20504;43.214;27.920;2023-03-09T09:29:35;98785.97;;;23.17;100.00
34243;BME280;20504;43.214;27.920;2023-03-09T09:32:01;98770.13;;;23.21;100.00
34243;BME280;20504;43.214;27.920;2023-03-09T09:34:28;98761.06;;;23.34;100.00
34243;BME280;20504;43.214;27.920;2023-03-09T09:36:56;98742.00;;;23.47;100.00
34243;BME280;20504;43.214;27.920;2023-03-09T09:39:21;98776.69;;;23.32;100.00
34243;BME280;20504;43.214;27.920;2023-03-09T09:41:51;98722.34;;;23.58;100.00
34243;BME280;20504;43.214;27.920;2023-03-09T09:44:21;98702.19;;;23.72;100.00
34243;BME280;20504;43.214;27.920;2023-03-09T09:46:48;98666.97;;;23.91;100.00
34243;BME280;20504;43.214;27.920;2023-03-09T09:49:18;98646.31;;;24.08;100.00
34243;BME280;20504;43.214;27.920;2023-03-09T09:51:50;98647.13;;;24.08;100.00
34243;BME280;20504;43.214;27.920;2023-03-09T09:54:25;98701.34;;;23.72;100.00
34243;BME280;20504;43.214;27.920;2023-03-09T09:56:58;98718.56;;;23.59;100.00
34243;BME280;20504;43.214;27.920;2023-03-09T10:01:55;98650.19;;;24.00;100.00
34243;BME280;20504;43.214;27.920;2023-03-09T10:04:28;98626.41;;;24.14;100.00
34243;BME280;20504;43.214;27.920;2023-03-09T10:06:54;98664.16;;;23.97;100.00
34243;BME280;20504;43.214;27.920;2023-03-09T10:09:23;98612.69;;;24.27;100.00
34243;BME280;20504;43.214;27.920;2023-03-09T10:11:50;98590.00;;;24.40;100.00
34243;BME280;20504;43.214;27.920;2023-03-09T10:19:47;98494.00;;;25.11;100.00
34243;BME280;20504;43.214;27.920;2023-03-09T10:24:40;98490.69;;;25.09;100.00
34243;BME280;20504;43.214;27.920;2023-03-09T10:27:31;98493.19;;;24.99;100.00
34243;BME280;20504;43.214;27.920;2023-03-09T10:35:18;98314.28;;;26.05;100.00
34243;BME280;20504;43.214;27.920;2023-03-09T10:37:44;98358.16;;;25.80;100.00
34243;BME280;20504;43.214;27.920;2023-03-09T10:40:28;98397.06;;;25.52;100.00
34243;BME280;20504;43.214;27.920;2023-03-09T10:42:58;98339.81;;;25.87;100.00
34243;BME280;20504;43.214;27.920;2023-03-09T10:45:30;98313.34;;;25.99;100.00
34243;BME280;20504;43.214;27.920;2023-03-09T10:47:59;98382.13;;;25.49;100.00
34243;BME280;20504;43.214;27.920;2023-03-09T10:50:27;98411.19;;;25.37;100.00
34243;BME280;20504;43.214;27.920;2023-03-09T10:52:53;98506.09;;;24.68;100.00
34243;BME280;20504;43.214;27.920;2023-03-09T10:55:32;98425.56;;;25.21;100.00
34243;BME280;20504;43.214;27.920;2023-03-09T10:57:59;98332.91;;;25.79;100.00
34243;BME280;20504;43.214;27.920;2023-03-09T11:00:24;98317.84;;;25.88;100.00
34243;BME280;20504;43.214;27.920;2023-03-09T11:02:53;98374.44;;;25.46;100.00
34243;BME280;20504;43.214;27.920;2023-03-09T11:07:54;98541.56;;;24.32;100.00
34243;BME280;20504;43.214;27.920;2023-03-09T11:10:28;98589.78;;;24.00;100.00
34243;BME280;20504;43.214;27.920;2023-03-09T11:12:55;98613.25;;;23.76;100.00
34243;BME280;20504;43.214;27.920;2023-03-09T11:15:31;98510.47;;;24.34;100.00
34243;BME280;20504;43.214;27.920;2023-03-09T11:17:57;98434.16;;;24.89;100.00
34243;BME280;20504;43.214;27.920;2023-03-09T11:20:31;98550.47;;;24.09;100.00
34243;BME280;20504;43.214;27.920;2023-03-09T11:22:58;98467.47;;;24.61;100.00
34243;BME280;20504;43.214;27.920;2023-03-09T11:25:36;98471.25;;;24.60;100.00
34243;BME280;20504;43.214;27.920;2023-03-09T11:30:43;98429.22;;;24.86;100.00
34243;BME280;20504;43.214;27.920;2023-03-09T11:33:09;98368.09;;;25.24;100.00
34243;BME280;20504;43.214;27.920;2023-03-09T11:35:36;98307.91;;;25.60;100.00
34243;BME280;20504;43.214;27.920;2023-03-09T11:38:02;98297.38;;;25.64;100.00
34243;BME280;20504;43.214;27.920;2023-03-09T11:40:28;98334.91;;;25.50;100.00
34243;BME280;20504;43.214;27.920;2023-03-09T11:45:23;98226.34;;;26.11;100.00
34243;BME280;20504;43.214;27.920;2023-03-09T11:50:23;98197.50;;;26.32;100.00
34243;BME280;20504;43.214;27.920;2023-03-09T11:52:51;98204.53;;;26.27;100.00
34243;BME280;20504;43.214;27.920;2023-03-09T11:55:18;98292.75;;;25.81;100.00
34243;BME280;20504;43.214;27.920;2023-03-09T11:57:47;98172.38;;;26.41;100.00
34243;BME280;20504;43.214;27.920;2023-03-09T12:00:15;98073.63;;;27.05;100.00
34243;BME280;20504;43.214;27.920;2023-03-09T12:02:58;98116.94;;;26.79;100.00
34243;BME280;20504;43.214;27.920;2023-03-09T12:05:26;98110.44;;;26.80;100.00
34243;BME280;20504;43.214;27.920;2023-03-09T12:07:56;98075.50;;;27.04;100.00
34243;BME280;20504;43.214;27.920;2023-03-09T12:10:25;98129.13;;;26.77;100.00
34243;BME280;20504;43.214;27.920;2023-03-09T12:12:59;98119.13;;;26.82;100.00
34243;BME280;20504;43.214;27.920;2023-03-09T12:15:34;98076.63;;;27.13;100.00
34243;BME280;20504;43.214;27.920;2023-03-09T12:18:01;97992.16;;;27.61;100.00
34243;BME280;20504;43.214;27.920;2023-03-09T12:22:52;97899.03;;;28.20;100.00
34243;BME280;20504;43.214;27.920;2023-03-09T12:25:22;97836.81;;;28.52;100.00
34243;BME280;20504;43.214;27.920;2023-03-09T12:27:52;97837.06;;;28.56;100.00
34243;BME280;20504;43.214;27.920;2023-03-09T12:32:43;98019.34;;;27.51;100.00
34243;BME280;20504;43.214;27.920;2023-03-09T12:42:56;97710.75;;;29.39;100.00
34243;BME280;20504;43.214;27.920;2023-03-09T12:45:26;97654.69;;;29.75;100.00
34243;BME280;20504;43.214;27.920;2023-03-09T13:01:03;97182.69;;;32.98;96.15
34243;BME280;20504;43.214;27.920;2023-03-09T13:05:57;97200.44;;;33.00;90.73
34243;BME280;20504;43.214;27.920;2023-03-09T13:08:30;97510.31;;;31.40;88.75
34243;BME280;20504;43.214;27.920;2023-03-09T13:13:41;97309.13;;;32.53;93.11
34243;BME280;20504;43.214;27.920;2023-03-09T13:16:53;97220.28;;;33.06;91.76
34243;BME280;20504;43.214;27.920;2023-03-09T13:24:43;97120.72;;;33.82;89.08
34243;BME280;20504;43.214;27.920;2023-03-09T13:29:37;96946.06;;;34.92;86.20
34243;BME280;20504;43.214;27.920;2023-03-09T13:32:04;96985.72;;;34.79;85.35
34243;BME280;20504;43.214;27.920;2023-03-09T13:34:33;97332.16;;;32.83;86.54
34243;BME280;20504;43.214;27.920;2023-03-09T13:37:04;97270.84;;;33.13;87.41
34243;BME280;20504;43.214;27.920;2023-03-09T13:39:30;97276.31;;;33.13;89.02
34243;BME280;20504;43.214;27.920;2023-03-09T13:41:56;97204.06;;;33.56;88.65
34243;BME280;20504;43.214;27.920;2023-03-09T13:44:24;97112.50;;;34.11;87.66
34243;BME280;20504;43.214;27.920;2023-03-09T13:46:51;97129.13;;;34.15;87.61
34243;BME280;20504;43.214;27.920;2023-03-09T13:49:20;97253.69;;;33.51;87.05
34243;BME280;20504;43.214;27.920;2023-03-09T13:54:33;97016.28;;;34.98;85.79
34243;BME280;20504;43.214;27.920;2023-03-09T13:59:27;96768.94;;;36.59;84.30
34243;BME280;20504;43.214;27.920;2023-03-09T14:02:00;96822.19;;;36.44;80.22
34243;BME280;20504;43.214;27.920;2023-03-09T14:04:25;97085.09;;;34.98;78.28
34243;BME280;20504;43.214;27.920;2023-03-09T14:06:51;97370.47;;;33.31;78.97